Time,TemperatureF,DewpointF,PressureIn,WindDirection,WindDirectionDegrees,WindSpeedMPH,WindSpeedGustMPH,Humidity,HourlyPrecipIn,Conditions,Clouds,dailyrainin,SoftwareType,DateUTC
2013-03-26 00:00:00,34.7,27.3,29.54,NNW,338,0.6,1.1,74,0.00,BKN,,0.00,WeatherDisplay:10.37,2013-03-26 04:00:00,
2013-03-26 00:01:00,34.7,27.3,29.54,NNW,338,0.6,0.0,74,0.00,BKN,,0.00,WeatherDisplay:10.37,2013-03-26 04:01:00,
2013-03-26 00:06:00,34.7,27.3,29.54,SW,225,0.5,0.0,74,0.00,BKN,,0.00,WeatherDisplay:10.37,2013-03-26 04:06:00,
2013-03-26 00:12:00,34.5,27.1,29.54,West,270,0.6,0.0,74,0.00,BKN,,0.00,WeatherDisplay:10.37,2013-03-26 04:12:00,
2013-03-26 00:18:00,34.7,27.6,29.52,North,0,0.7,2.3,75,0.00,BKN,,0.00,WeatherDisplay:10.37,2013-03-26 04:18:00,
2013-03-26 00:23:00,34.7,27.6,29.52,SE,135,0.6,0.0,75,0.00,BKN,,0.00,WeatherDisplay:10.37,2013-03-26 04:23:00,
2013-03-26 00:28:00,34.7,27.3,29.52,North,0,0.5,1.1,74,0.00,BKN,,0.00,WeatherDisplay:10.37,2013-03-26 04:28:00,
2013-03-26 00:33:00,34.7,27.3,29.52,SE,135,0.5,1.1,74,0.00,BKN,,0.00,WeatherDisplay:10.37,2013-03-26 04:33:00,
2013-03-26 00:38:00,34.7,27.3,29.53,NNE,22,0.3,1.1,74,0.00,BKN,,0.00,WeatherDisplay:10.37,2013-03-26 04:38:00,
2013-03-26 00:43:00,34.5,27.1,29.53,NE,45,0.3,1.1,74,0.00,BKN,,0.00,WeatherDisplay:10.37,2013-03-26 04:43:00,
2013-03-26 00:48:00,34.7,27.3,29.53,NW,315,0.6,1.1,74,0.00,BKN,,0.00,WeatherDisplay:10.37,2013-03-26 04:48:00,
2013-03-26 00:53:00,34.7,27.3,29.53,NNW,338,0.6,0.0,74,0.00,BKN,,0.00,WeatherDisplay:10.37,2013-03-26 04:53:00,
2013-03-26 00:58:00,34.7,27.6,29.53,NNE,22,0.6,3.5,75,0.00,BKN,,0.00,WeatherDisplay:10.37,2013-03-26 04:58:00,
2013-03-26 01:03:00,34.9,27.8,29.53,ENE,68,1.0,1.1,75,0.00,OVC,,0.00,WeatherDisplay:10.37,2013-03-26 05:03:00,
2013-03-26 01:06:00,34.7,27.9,29.53,NNE,22,1.3,4.6,76,0.00,OVC,,0.00,WeatherDisplay:10.37,2013-03-26 05:06:00,
2013-03-26 01:11:00,34.5,27.7,29.53,South,180,0.9,2.3,76,0.00,OVC,,0.00,WeatherDisplay:10.37,2013-03-26 05:11:00,
2013-03-26 01:17:00,34.5,27.7,29.54,NNE,22,1.1,2.3,76,0.00,OVC,,0.00,WeatherDisplay:10.37,2013-03-26 05:17:00,
2013-03-26 01:22:00,34.7,27.9,29.54,ENE,68,1.1,1.1,76,0.00,OVC,,0.00,WeatherDisplay:10.37,2013-03-26 05:22:00,
2013-03-26 01:27:00,34.7,27.9,29.54,ESE,112,1.1,1.1,76,0.00,OVC,,0.00,WeatherDisplay:10.37,2013-03-26 05:27:00,
2013-03-26 01:32:00,34.5,27.7,29.54,NW,315,0.5,1.1,76,0.00,OVC,,0.00,WeatherDisplay:10.37,2013-03-26 05:32:00,
2013-03-26 01:37:00,34.5,27.7,29.53,WSW,248,0.3,0.0,76,0.00,OVC,,0.00,WeatherDisplay:10.37,2013-03-26 05:37:00,
2013-03-26 01:42:00,34.7,27.9,29.53,NE,45,0.3,1.1,76,0.00,OVC,,0.00,WeatherDisplay:10.37,2013-03-26 05:42:00,
2013-03-26 01:47:00,34.5,27.7,29.53,ENE,68,0.3,1.1,76,0.00,OVC,,0.00,WeatherDisplay:10.37,2013-03-26 05:47:00,
2013-03-26 01:53:00,34.7,27.9,29.53,WNW,292,0.3,0.0,76,0.00,OVC,,0.00,WeatherDisplay:10.37,2013-03-26 05:53:00,
2013-03-26 01:58:00,34.7,27.6,29.54,North,0,0.7,1.1,75,0.00,OVC,,0.00,WeatherDisplay:10.37,2013-03-26 05:58:00,
2013-03-26 02:03:00,34.7,27.6,29.54,North,0,1.1,2.3,75,0.00,OVC,,0.00,WeatherDisplay:10.37,2013-03-26 06:03:00,
2013-03-26 02:08:00,34.7,27.3,29.54,WSW,248,1.0,1.1,74,0.00,OVC,,0.00,WeatherDisplay:10.37,2013-03-26 06:08:00,
2013-03-26 02:13:00,34.7,27.3,29.54,NNE,22,0.7,1.1,74,0.00,OVC,,0.00,WeatherDisplay:10.37,2013-03-26 06:13:00,
2013-03-26 02:18:00,34.9,27.4,29.54,North,0,1.0,4.6,74,0.00,OVC,,0.00,WeatherDisplay:10.37,2013-03-26 06:18:00,
2013-03-26 02:23:00,34.7,27.3,29.54,WNW,292,1.3,1.3,74,0.00,OVC,,0.00,WeatherDisplay:10.37,2013-03-26 06:23:00,
2013-03-26 02:28:00,34.7,27.3,29.54,NNW,338,1.0,2.3,74,0.00,OVC,,0.00,WeatherDisplay:10.37,2013-03-26 06:28:00,
2013-03-26 02:33:00,34.7,27.3,29.54,NNE,22,0.8,0.0,74,0.00,OVC,,0.00,WeatherDisplay:10.37,2013-03-26 06:33:00,
2013-03-26 02:38:00,34.7,27.3,29.54,SW,225,0.3,0.0,74,0.00,OVC,,0.00,WeatherDisplay:10.37,2013-03-26 06:38:00,
2013-03-26 02:43:00,34.7,27.3,29.54,SSW,202,0.3,0.0,74,0.00,OVC,,0.00,WeatherDisplay:10.37,2013-03-26 06:43:00,
2013-03-26 02:48:00,34.9,27.4,29.54,NE,45,1.5,9.2,74,0.00,OVC,,0.00,WeatherDisplay:10.37,2013-03-26 06:48:00,
2013-03-26 02:53:00,34.9,27.4,29.54,NNE,22,1.6,2.3,74,0.00,OVC,,0.00,WeatherDisplay:10.37,2013-03-26 06:53:00,
2013-03-26 02:58:00,34.7,26.9,29.54,SSE,158,1.1,4.6,73,0.00,OVC,,0.00,WeatherDisplay:10.37,2013-03-26 06:58:00,
2013-03-26 03:03:00,34.9,27.1,29.54,ENE,68,1.1,2.3,73,0.00,OVC,,0.00,WeatherDisplay:10.37,2013-03-26 07:03:00,
2013-03-26 03:08:00,34.9,27.1,29.54,ENE,68,1.1,2.3,73,0.00,OVC,,0.00,WeatherDisplay:10.37,2013-03-26 07:08:00,
2013-03-26 03:13:00,34.7,26.9,29.54,WSW,248,1.3,2.3,73,0.00,OVC,,0.00,WeatherDisplay:10.37,2013-03-26 07:13:00,
2013-03-26 03:18:00,34.7,26.6,29.53,NE,45,1.3,3.5,72,0.00,OVC,,0.00,WeatherDisplay:10.37,2013-03-26 07:18:00,
2013-03-26 03:23:00,34.9,26.8,29.53,NE,45,1.5,2.3,72,0.00,OVC,,0.00,WeatherDisplay:10.37,2013-03-26 07:23:00,
2013-03-26 03:28:00,34.7,26.6,29.53,NNE,22,1.7,4.6,72,0.00,OVC,,0.00,WeatherDisplay:10.37,2013-03-26 07:28:00,
2013-03-26 03:34:00,34.7,26.6,29.53,SSW,202,1.5,1.5,72,0.00,OVC,,0.00,WeatherDisplay:10.37,2013-03-26 07:34:00,
2013-03-26 03:39:00,34.7,26.6,29.54,East,90,1.6,1.6,72,0.00,OVC,,0.00,WeatherDisplay:10.37,2013-03-26 07:39:00,
2013-03-26 03:44:00,34.7,26.6,29.54,NNW,338,1.4,4.6,72,0.00,OVC,,0.00,WeatherDisplay:10.37,2013-03-26 07:44:00,
2013-03-26 03:49:00,34.7,26.6,29.54,NNW,338,1.5,2.3,72,0.00,OVC,,0.00,WeatherDisplay:10.37,2013-03-26 07:49:00,
2013-03-26 03:54:00,34.5,26.4,29.54,SSW,202,1.1,0.0,72,0.00,OVC,,0.00,WeatherDisplay:10.37,2013-03-26 07:54:00,
2013-03-26 03:59:00,34.3,26.6,29.55,NW,315,0.8,2.3,73,0.00,OVC,,0.00,WeatherDisplay:10.37,2013-03-26 07:59:00,
2013-03-26 04:04:00,34.3,26.6,29.55,NW,315,0.6,2.3,73,0.00,OVC,,0.00,WeatherDisplay:10.37,2013-03-26 08:04:00,
2013-03-26 04:09:00,34.3,26.2,29.55,NNE,22,0.6,0.0,72,0.00,OVC,,0.00,WeatherDisplay:10.37,2013-03-26 08:09:00,
2013-03-26 04:14:00,34.2,26.4,29.55,WNW,292,0.5,0.0,73,0.00,OVC,,0.00,WeatherDisplay:10.37,2013-03-26 08:14:00,
2013-03-26 04:19:00,34.2,26.4,29.55,NE,45,0.3,1.1,73,0.00,OVC,,0.00,WeatherDisplay:10.37,2013-03-26 08:19:00,
2013-03-26 04:24:00,34.3,26.6,29.55,ENE,68,0.5,1.1,73,0.00,OVC,,0.00,WeatherDisplay:10.37,2013-03-26 08:24:00,
2013-03-26 04:29:00,34.2,26.4,29.55,South,180,0.2,0.0,73,0.00,OVC,,0.00,WeatherDisplay:10.37,2013-03-26 08:29:00,
2013-03-26 04:34:00,34.0,26.2,29.55,NNE,22,0.6,2.3,73,0.00,OVC,,0.00,WeatherDisplay:10.37,2013-03-26 08:34:00,
2013-03-26 04:39:00,34.0,26.2,29.55,SW,225,0.7,1.1,73,0.00,OVC,,0.00,WeatherDisplay:10.37,2013-03-26 08:39:00,
2013-03-26 04:44:00,34.0,26.2,29.55,NE,45,0.9,4.6,73,0.00,OVC,,0.00,WeatherDisplay:10.37,2013-03-26 08:44:00,
2013-03-26 04:49:00,33.8,26.1,29.55,NNW,338,0.8,1.1,73,0.00,OVC,,0.00,WeatherDisplay:10.37,2013-03-26 08:49:00,
2013-03-26 04:54:00,34.0,26.2,29.55,WNW,292,0.9,2.3,73,0.00,OVC,,0.00,WeatherDisplay:10.37,2013-03-26 08:54:00,
2013-03-26 04:59:00,34.0,26.6,29.56,NW,315,0.8,0.0,74,0.00,OVC,,0.00,WeatherDisplay:10.37,2013-03-26 08:59:00,
2013-03-26 05:04:00,34.0,26.6,29.56,NNE,22,0.6,2.3,74,0.00,OVC,,0.00,WeatherDisplay:10.37,2013-03-26 09:04:00,
2013-03-26 05:09:00,33.6,26.2,29.56,NNW,338,0.3,1.1,74,0.00,OVC,,0.00,WeatherDisplay:10.37,2013-03-26 09:09:00,
2013-03-26 05:14:00,33.6,26.2,29.56,SW,225,0.3,1.1,74,0.00,OVC,,0.00,WeatherDisplay:10.37,2013-03-26 09:14:00,
2013-03-26 05:19:00,33.6,26.5,29.57,South,180,0.3,0.0,75,0.00,OVC,,0.00,WeatherDisplay:10.37,2013-03-26 09:19:00,
2013-03-26 05:24:00,33.4,26.4,29.57,NW,315,0.2,0.0,75,0.00,OVC,,0.00,WeatherDisplay:10.37,2013-03-26 09:24:00,
2013-03-26 05:29:00,33.4,26.4,29.57,SW,225,0.1,2.3,75,0.00,OVC,,0.00,WeatherDisplay:10.37,2013-03-26 09:29:00,
2013-03-26 05:34:00,33.6,26.5,29.57,NNE,22,0.3,1.1,75,0.00,OVC,,0.00,WeatherDisplay:10.37,2013-03-26 09:34:00,
2013-03-26 05:39:00,33.6,26.5,29.58,WSW,248,0.7,3.5,75,0.00,OVC,,0.00,WeatherDisplay:10.37,2013-03-26 09:39:00,
2013-03-26 05:44:00,33.6,26.5,29.58,WNW,292,0.5,0.0,75,0.00,OVC,,0.00,WeatherDisplay:10.37,2013-03-26 09:44:00,
2013-03-26 05:49:00,33.6,26.5,29.58,NW,315,0.6,0.0,75,0.00,OVC,,0.00,WeatherDisplay:10.37,2013-03-26 09:49:00,
2013-03-26 05:54:00,33.6,26.5,29.58,NNW,338,0.3,1.1,75,0.00,OVC,,0.00,WeatherDisplay:10.37,2013-03-26 09:54:00,
2013-03-26 05:59:00,33.6,26.5,29.58,NNE,22,0.3,0.0,75,0.00,OVC,,0.00,WeatherDisplay:10.37,2013-03-26 09:59:00,
2013-03-26 06:04:00,33.6,26.5,29.58,NNW,338,0.5,2.3,75,0.00,OVC,,0.00,WeatherDisplay:10.37,2013-03-26 10:04:00,
2013-03-26 06:09:00,33.6,26.5,29.58,NNW,338,0.5,2.3,75,0.00,OVC,,0.00,WeatherDisplay:10.37,2013-03-26 10:09:00,
2013-03-26 06:14:00,33.4,26.4,29.58,SW,225,0.3,1.1,75,0.00,OVC,,0.00,WeatherDisplay:10.37,2013-03-26 10:14:00,
2013-03-26 06:19:00,33.4,26.4,29.59,SW,225,0.2,1.1,75,0.00,OVC,,0.00,WeatherDisplay:10.37,2013-03-26 10:19:00,
2013-03-26 06:24:00,33.4,26.4,29.59,SW,225,0.3,0.0,75,0.00,OVC,,0.00,WeatherDisplay:10.37,2013-03-26 10:24:00,
2013-03-26 06:29:00,33.4,26.4,29.59,West,270,0.3,1.1,75,0.00,OVC,,0.00,WeatherDisplay:10.37,2013-03-26 10:29:00,
2013-03-26 06:34:00,33.4,26.4,29.59,WNW,292,0.3,1.1,75,0.00,OVC,,0.00,WeatherDisplay:10.37,2013-03-26 10:34:00,
2013-03-26 06:39:00,33.6,26.5,29.62,WSW,248,0.3,1.1,75,0.00,OVC,,0.00,WeatherDisplay:10.37,2013-03-26 10:39:00,
2013-03-26 06:44:00,33.4,26.4,29.62,WSW,248,0.2,0.0,75,0.00,OVC,,0.00,WeatherDisplay:10.37,2013-03-26 10:44:00,
2013-03-26 06:49:00,33.4,26.4,29.62,WNW,292,0.3,0.0,75,0.00,OVC,,0.00,WeatherDisplay:10.37,2013-03-26 10:49:00,
2013-03-26 06:54:00,33.4,26.4,29.62,WSW,248,0.1,0.0,75,0.00,OVC,,0.00,WeatherDisplay:10.37,2013-03-26 10:54:00,
2013-03-26 06:59:00,33.4,26.4,29.62,WNW,292,0.1,0.0,75,0.00,OVC,,0.00,WeatherDisplay:10.37,2013-03-26 10:59:00,
2013-03-26 07:04:00,33.4,26.7,29.62,SW,225,0.1,0.0,76,0.00,OVC,,0.00,WeatherDisplay:10.37,2013-03-26 11:04:00,
2013-03-26 07:09:00,33.4,26.7,29.62,NW,315,0.0,0.0,76,0.00,OVC,,0.00,WeatherDisplay:10.37,2013-03-26 11:09:00,
2013-03-26 07:14:00,33.4,26.7,29.62,WSW,248,0.0,0.0,76,0.00,OVC,,0.00,WeatherDisplay:10.37,2013-03-26 11:14:00,
2013-03-26 07:19:00,33.6,26.9,29.61,WSW,248,0.0,0.0,76,0.00,OVC,,0.00,WeatherDisplay:10.37,2013-03-26 11:19:00,
2013-03-26 07:24:00,33.6,26.9,29.61,WSW,248,0.0,0.0,76,0.00,OVC,,0.00,WeatherDisplay:10.37,2013-03-26 11:24:00,
2013-03-26 07:29:00,33.6,26.9,29.61,West,270,0.0,0.0,76,0.00,OVC,,0.00,WeatherDisplay:10.37,2013-03-26 11:29:00,
2013-03-26 07:34:00,34.0,26.9,29.61,SSW,202,0.2,0.0,75,0.00,OVC,,0.00,WeatherDisplay:10.37,2013-03-26 11:34:00,
2013-03-26 07:39:00,34.0,27.2,29.62,NW,315,0.3,0.0,76,0.00,OVC,,0.00,WeatherDisplay:10.37,2013-03-26 11:39:00,
2013-03-26 07:44:00,34.2,27.1,29.62,West,270,0.2,0.0,75,0.00,OVC,,0.00,WeatherDisplay:10.37,2013-03-26 11:44:00,
2013-03-26 07:49:00,34.2,27.1,29.62,WNW,292,0.1,0.0,75,0.00,OVC,,0.00,WeatherDisplay:10.37,2013-03-26 11:49:00,
2013-03-26 07:54:00,34.3,27.2,29.62,NW,315,0.2,0.0,75,0.00,OVC,,0.00,WeatherDisplay:10.37,2013-03-26 11:54:00,
2013-03-26 07:59:00,34.5,27.1,29.62,WNW,292,0.3,0.0,74,0.00,OVC,,0.00,WeatherDisplay:10.37,2013-03-26 11:59:00,
2013-03-26 08:04:00,34.7,27.3,29.62,WNW,292,0.2,0.0,74,0.00,OVC,,0.00,WeatherDisplay:10.37,2013-03-26 12:04:00,
2013-03-26 08:09:00,34.7,27.6,29.62,WNW,292,0.0,0.0,75,0.00,OVC,,0.00,WeatherDisplay:10.37,2013-03-26 12:09:00,
2013-03-26 08:14:00,34.9,27.4,29.62,NW,315,0.0,1.1,74,0.00,OVC,,0.00,WeatherDisplay:10.37,2013-03-26 12:14:00,
2013-03-26 08:19:00,34.9,27.4,29.63,North,0,0.3,0.0,74,0.00,OVC,,0.00,WeatherDisplay:10.37,2013-03-26 12:19:00,
2013-03-26 08:24:00,35.1,27.6,29.63,WNW,292,0.3,1.1,74,0.00,OVC,,0.00,WeatherDisplay:10.37,2013-03-26 12:24:00,
2013-03-26 08:29:00,35.1,27.6,29.63,NNW,338,0.3,0.0,74,0.00,OVC,,0.00,WeatherDisplay:10.37,2013-03-26 12:29:00,
2013-03-26 08:34:00,35.4,28.0,29.63,SW,225,0.5,1.1,74,0.00,OVC,,0.00,WeatherDisplay:10.37,2013-03-26 12:34:00,
2013-03-26 08:39:00,35.4,28.0,29.65,NNW,338,0.3,0.0,74,0.00,OVC,,0.00,WeatherDisplay:10.37,2013-03-26 12:39:00,
2013-03-26 08:44:00,35.4,27.6,29.65,WSW,248,0.5,1.1,73,0.00,OVC,,0.00,WeatherDisplay:10.37,2013-03-26 12:44:00,
2013-03-26 08:49:00,35.4,27.6,29.65,WSW,248,0.3,0.0,73,0.00,OVC,,0.00,WeatherDisplay:10.37,2013-03-26 12:49:00,
2013-03-26 08:54:00,35.6,27.8,29.65,West,270,0.3,0.0,73,0.00,OVC,,0.00,WeatherDisplay:10.37,2013-03-26 12:54:00,
2013-03-26 08:59:00,35.6,27.8,29.66,NNE,22,0.3,0.0,73,0.00,OVC,,0.00,WeatherDisplay:10.37,2013-03-26 12:59:00,
2013-03-26 09:04:00,35.8,28.0,29.66,NW,315,0.2,2.3,73,0.00,OVC,,0.00,WeatherDisplay:10.37,2013-03-26 13:04:00,
2013-03-26 09:09:00,35.6,27.8,29.66,NW,315,0.2,0.0,73,0.00,OVC,,0.00,WeatherDisplay:10.37,2013-03-26 13:09:00,
2013-03-26 09:14:00,35.8,28.0,29.66,ENE,68,0.2,0.0,73,0.00,OVC,,0.00,WeatherDisplay:10.37,2013-03-26 13:14:00,
2013-03-26 09:19:00,35.8,28.0,29.67,West,270,0.2,0.0,73,0.00,OVC,,0.00,WeatherDisplay:10.37,2013-03-26 13:19:00,
2013-03-26 09:24:00,36.0,28.1,29.67,NE,45,0.3,1.1,73,0.00,OVC,,0.00,WeatherDisplay:10.37,2013-03-26 13:24:00,
2013-03-26 09:29:00,36.1,28.3,29.67,SSE,158,0.6,0.0,73,0.00,OVC,,0.00,WeatherDisplay:10.37,2013-03-26 13:29:00,
2013-03-26 09:34:00,36.3,28.5,29.67,SW,225,0.3,0.0,73,0.00,OVC,,0.00,WeatherDisplay:10.37,2013-03-26 13:34:00,
2013-03-26 09:39:00,36.3,28.2,29.70,NE,45,0.3,0.0,72,0.00,OVC,,0.00,WeatherDisplay:10.37,2013-03-26 13:39:00,
2013-03-26 09:44:00,36.5,28.3,29.70,NE,45,0.5,0.0,72,0.00,OVC,,0.00,WeatherDisplay:10.37,2013-03-26 13:44:00,
2013-03-26 09:49:00,36.7,28.5,29.70,ENE,68,0.6,1.1,72,0.00,OVC,,0.00,WeatherDisplay:10.37,2013-03-26 13:49:00,
2013-03-26 09:54:00,37.2,28.7,29.70,NE,45,0.3,0.0,71,0.00,OVC,,0.00,WeatherDisplay:10.37,2013-03-26 13:54:00,
2013-03-26 09:59:00,37.2,28.7,29.73,West,270,0.3,0.0,71,0.00,OVC,,0.00,WeatherDisplay:10.37,2013-03-26 13:59:00,
2013-03-26 10:04:00,37.6,29.0,29.73,NNE,22,0.6,2.3,71,0.00,-SN,,0.00,WeatherDisplay:10.37,2013-03-26 14:04:00,
2013-03-26 10:09:00,37.6,28.7,29.73,NE,45,0.7,2.3,70,0.00,-SN,,0.00,WeatherDisplay:10.37,2013-03-26 14:09:00,
2013-03-26 10:14:00,38.3,29.0,29.73,NE,45,1.0,2.3,69,0.00,-SN,,0.00,WeatherDisplay:10.37,2013-03-26 14:14:00,
2013-03-26 10:19:00,39.0,29.3,29.73,North,0,1.1,0.0,68,0.00,-SN,,0.00,WeatherDisplay:10.37,2013-03-26 14:19:00,
2013-03-26 10:24:00,39.4,29.3,29.73,SW,225,1.1,3.5,67,0.00,-SN,,0.00,WeatherDisplay:10.37,2013-03-26 14:24:00,
2013-03-26 10:29:00,39.4,29.0,29.73,NNW,338,1.0,1.1,66,0.00,-SN,,0.00,WeatherDisplay:10.37,2013-03-26 14:29:00,
2013-03-26 10:34:00,40.3,29.8,29.73,NE,45,1.1,2.3,66,0.00,-SN,,0.00,WeatherDisplay:10.37,2013-03-26 14:34:00,
2013-03-26 10:39:00,40.6,29.8,29.73,NNE,22,1.0,0.0,65,0.00,-SN,,0.00,WeatherDisplay:10.37,2013-03-26 14:39:00,
2013-03-26 10:44:00,41.0,29.7,29.73,SW,225,0.8,2.3,64,0.00,-SN,,0.00,WeatherDisplay:10.37,2013-03-26 14:44:00,
2013-03-26 10:49:00,41.2,29.9,29.73,North,0,1.0,0.0,64,0.00,-SN,,0.00,WeatherDisplay:10.37,2013-03-26 14:49:00,
2013-03-26 10:54:00,41.2,29.9,29.73,NW,315,1.0,0.0,64,0.00,-SN,,0.00,WeatherDisplay:10.37,2013-03-26 14:54:00,
2013-03-26 10:59:00,41.4,30.1,29.73,East,90,0.8,1.1,64,0.00,-SN,,0.00,WeatherDisplay:10.37,2013-03-26 14:59:00,
2013-03-26 11:04:00,41.2,29.9,29.73,NE,45,0.9,1.1,64,0.00,OVC,,0.00,WeatherDisplay:10.37,2013-03-26 15:04:00,
2013-03-26 11:09:00,40.8,29.2,29.73,SW,225,1.0,2.3,63,0.00,OVC,,0.00,WeatherDisplay:10.37,2013-03-26 15:09:00,
2013-03-26 11:14:00,40.8,29.6,29.73,NW,315,1.1,1.5,64,0.00,OVC,,0.00,WeatherDisplay:10.37,2013-03-26 15:14:00,
2013-03-26 11:19:00,41.4,30.1,29.73,SW,225,1.0,0.0,64,0.00,OVC,,0.00,WeatherDisplay:10.37,2013-03-26 15:19:00,
2013-03-26 11:24:00,41.9,30.2,29.73,SW,225,0.3,1.1,63,0.00,OVC,,0.00,WeatherDisplay:10.37,2013-03-26 15:24:00,
2013-03-26 11:29:00,42.1,30.4,29.73,ENE,68,0.7,3.5,63,0.00,OVC,,0.00,WeatherDisplay:10.37,2013-03-26 15:29:00,
2013-03-26 11:34:00,42.3,30.2,29.73,SSE,158,1.6,4.6,62,0.00,OVC,,0.00,WeatherDisplay:10.37,2013-03-26 15:34:00,
2013-03-26 11:39:00,42.1,30.0,29.73,SSW,202,1.4,2.3,62,0.00,OVC,,0.00,WeatherDisplay:10.37,2013-03-26 15:39:00,
2013-03-26 11:44:00,42.4,30.3,29.73,SW,225,0.8,1.1,62,0.00,OVC,,0.00,WeatherDisplay:10.37,2013-03-26 15:44:00,
2013-03-26 11:49:00,43.3,30.4,29.73,NE,45,1.1,2.3,60,0.00,OVC,,0.00,WeatherDisplay:10.37,2013-03-26 15:49:00,
2013-03-26 11:54:00,43.5,30.5,29.73,WNW,292,1.4,2.3,60,0.00,OVC,,0.00,WeatherDisplay:10.37,2013-03-26 15:54:00,
2013-03-26 11:59:00,43.5,30.1,29.73,SW,225,1.6,4.6,59,0.00,OVC,,0.00,WeatherDisplay:10.37,2013-03-26 15:59:00,
2013-03-26 12:04:00,43.5,30.1,29.73,SSW,202,1.7,2.3,59,0.00,OVC,,0.00,WeatherDisplay:10.37,2013-03-26 16:04:00,
2013-03-26 12:09:00,43.5,30.1,29.73,SSW,202,1.7,2.3,59,0.00,OVC,,0.00,WeatherDisplay:10.37,2013-03-26 16:09:00,
2013-03-26 12:14:00,43.9,30.0,29.73,South,180,1.6,3.5,58,0.00,OVC,,0.00,WeatherDisplay:10.37,2013-03-26 16:14:00,
2013-03-26 12:19:00,43.3,30.0,29.73,WSW,248,2.0,2.3,59,0.00,OVC,,0.00,WeatherDisplay:10.37,2013-03-26 16:19:00,
2013-03-26 12:25:00,42.8,29.5,29.73,SW,225,1.5,2.3,59,0.00,OVC,,0.00,WeatherDisplay:10.37,2013-03-26 16:25:00,
2013-03-26 12:30:00,41.9,29.0,29.73,ESE,112,1.4,2.3,60,0.00,OVC,,0.00,WeatherDisplay:10.37,2013-03-26 16:30:00,
2013-03-26 12:35:00,41.5,29.1,29.73,West,270,2.0,3.5,61,0.00,OVC,,0.00,WeatherDisplay:10.37,2013-03-26 16:35:00,
2013-03-26 12:40:00,42.3,29.8,29.73,WSW,248,1.7,3.5,61,0.00,OVC,,0.00,WeatherDisplay:10.37,2013-03-26 16:40:00,
2013-03-26 12:46:00,42.6,29.7,29.73,WNW,292,1.5,2.3,60,0.00,OVC,,0.00,WeatherDisplay:10.37,2013-03-26 16:46:00,
2013-03-26 12:51:00,43.3,30.4,29.73,WSW,248,1.1,4.4,60,0.00,OVC,,0.00,WeatherDisplay:10.37,2013-03-26 16:51:00,
2013-03-26 12:56:00,43.2,29.8,29.73,SSW,202,1.1,1.1,59,0.00,OVC,,0.00,WeatherDisplay:10.37,2013-03-26 16:56:00,
2013-03-26 13:01:00,43.7,30.3,29.73,North,0,1.4,1.4,59,0.00,OVC,,0.00,WeatherDisplay:10.37,2013-03-26 17:01:00,
2013-03-26 13:06:00,44.4,30.6,29.73,SSW,202,1.5,3.5,58,0.00,OVC,,0.00,WeatherDisplay:10.37,2013-03-26 17:06:00,
2013-03-26 13:11:00,44.8,30.5,29.73,WNW,292,1.7,2.3,57,0.00,OVC,,0.00,WeatherDisplay:10.37,2013-03-26 17:11:00,
2013-03-26 13:17:00,45.1,30.4,29.73,WNW,292,1.3,2.3,56,0.00,OVC,,0.00,WeatherDisplay:10.37,2013-03-26 17:17:00,
2013-03-26 13:22:00,45.0,30.2,29.73,NE,45,1.5,2.3,56,0.00,OVC,,0.00,WeatherDisplay:10.37,2013-03-26 17:22:00,
2013-03-26 13:27:00,44.2,29.5,29.73,SW,225,1.8,2.3,56,0.00,OVC,,0.00,WeatherDisplay:10.37,2013-03-26 17:27:00,
2013-03-26 13:32:00,43.7,29.0,29.73,NW,315,1.4,2.3,56,0.00,OVC,,0.00,WeatherDisplay:10.37,2013-03-26 17:32:00,
2013-03-26 13:37:00,44.1,29.4,29.73,NNE,22,1.1,2.3,56,0.00,OVC,,0.00,WeatherDisplay:10.37,2013-03-26 17:37:00,
2013-03-26 13:43:00,44.2,28.2,29.73,East,90,1.3,3.5,53,0.00,OVC,,0.00,WeatherDisplay:10.37,2013-03-26 17:43:00,
2013-03-26 13:48:00,45.5,28.9,29.73,NNW,338,2.0,6.9,52,0.00,OVC,,0.00,WeatherDisplay:10.37,2013-03-26 17:48:00,
2013-03-26 13:53:00,45.5,27.9,29.73,NNE,22,2.3,3.5,50,0.00,OVC,,0.00,WeatherDisplay:10.37,2013-03-26 17:53:00,
2013-03-26 13:58:00,45.1,27.6,29.74,NE,45,2.1,2.3,50,0.00,OVC,,0.00,WeatherDisplay:10.37,2013-03-26 17:58:00,
2013-03-26 14:03:00,45.0,27.4,29.74,SW,225,1.7,2.3,50,0.00,OVC,,0.00,WeatherDisplay:10.37,2013-03-26 18:03:00,
2013-03-26 14:08:00,44.8,26.8,29.74,SW,225,2.0,2.3,49,0.00,OVC,,0.00,WeatherDisplay:10.37,2013-03-26 18:08:00,
2013-03-26 14:13:00,44.8,26.3,29.74,WNW,292,2.5,6.9,48,0.00,OVC,,0.00,WeatherDisplay:10.37,2013-03-26 18:13:00,
2013-03-26 14:18:00,44.4,25.9,29.73,NNE,22,2.2,4.6,48,0.00,OVC,,0.00,WeatherDisplay:10.37,2013-03-26 18:18:00,
2013-03-26 14:23:00,44.8,26.3,29.73,WNW,292,2.1,2.3,48,0.00,OVC,,0.00,WeatherDisplay:10.37,2013-03-26 18:23:00,
2013-03-26 14:28:00,45.0,26.4,29.73,NNW,338,1.7,1.7,48,0.00,OVC,,0.00,WeatherDisplay:10.37,2013-03-26 18:28:00,
2013-03-26 14:33:00,44.4,25.4,29.73,WSW,248,1.6,4.6,47,0.00,OVC,,0.00,WeatherDisplay:10.37,2013-03-26 18:33:00,
2013-03-26 14:38:00,45.0,26.4,29.73,SSW,202,2.0,3.5,48,0.00,OVC,,0.00,WeatherDisplay:10.37,2013-03-26 18:38:00,
2013-03-26 14:43:00,45.1,26.6,29.73,WNW,292,2.2,2.3,48,0.00,OVC,,0.00,WeatherDisplay:10.37,2013-03-26 18:43:00,
2013-03-26 14:48:00,45.1,26.1,29.73,SW,225,2.1,2.3,47,0.00,OVC,,0.00,WeatherDisplay:10.37,2013-03-26 18:48:00,
2013-03-26 14:53:00,45.7,25.5,29.73,WSW,248,2.6,5.8,45,0.00,OVC,,0.00,WeatherDisplay:10.37,2013-03-26 18:53:00,
2013-03-26 14:58:00,46.8,26.5,29.73,NE,45,2.8,5.8,45,0.00,OVC,,0.00,WeatherDisplay:10.37,2013-03-26 18:58:00,
2013-03-26 15:03:00,46.9,26.1,29.73,NNE,22,2.6,2.6,44,0.00,BKN,,0.00,WeatherDisplay:10.37,2013-03-26 19:03:00,
2013-03-26 15:09:00,46.0,25.9,29.73,SSW,202,2.3,2.3,45,0.00,BKN,,0.00,WeatherDisplay:10.37,2013-03-26 19:09:00,
2013-03-26 15:14:00,46.2,26.6,29.73,SW,225,2.5,5.8,46,0.00,BKN,,0.00,WeatherDisplay:10.37,2013-03-26 19:14:00,
2013-03-26 15:19:00,46.6,25.8,29.73,NNE,22,2.6,3.5,44,0.00,BKN,,0.00,WeatherDisplay:10.37,2013-03-26 19:19:00,
2013-03-26 15:24:00,47.1,26.3,29.73,SW,225,2.4,6.9,44,0.00,BKN,,0.00,WeatherDisplay:10.37,2013-03-26 19:24:00,
2013-03-26 15:29:00,47.1,26.3,29.73,WSW,248,2.0,2.3,44,0.00,BKN,,0.00,WeatherDisplay:10.37,2013-03-26 19:29:00,
2013-03-26 15:34:00,46.6,25.8,29.73,North,0,1.7,4.6,44,0.00,BKN,,0.00,WeatherDisplay:10.37,2013-03-26 19:34:00,
2013-03-26 15:39:00,46.4,26.2,29.73,East,90,2.0,2.3,45,0.00,BKN,,0.00,WeatherDisplay:10.37,2013-03-26 19:39:00,
2013-03-26 15:44:00,45.5,25.4,29.73,NNW,338,2.2,4.6,45,0.00,BKN,,0.00,WeatherDisplay:10.37,2013-03-26 19:44:00,
2013-03-26 15:49:00,45.5,26.4,29.73,North,0,2.0,2.3,47,0.00,BKN,,0.00,WeatherDisplay:10.37,2013-03-26 19:49:00,
2013-03-26 15:54:00,45.9,26.2,29.73,NE,45,1.8,3.5,46,0.00,BKN,,0.00,WeatherDisplay:10.37,2013-03-26 19:54:00,
2013-03-26 15:59:00,46.2,26.0,29.73,NE,45,1.8,1.8,45,0.00,BKN,,0.00,WeatherDisplay:10.37,2013-03-26 19:59:00,
2013-03-26 16:04:00,46.4,26.2,29.73,WSW,248,1.5,3.5,45,0.00,BKN,,0.00,WeatherDisplay:10.37,2013-03-26 20:04:00,
2013-03-26 16:09:00,46.2,26.0,29.73,SW,225,1.4,2.3,45,0.00,BKN,,0.00,WeatherDisplay:10.37,2013-03-26 20:09:00,
2013-03-26 16:14:00,45.7,26.1,29.73,NNW,338,1.7,2.3,46,0.00,BKN,,0.00,WeatherDisplay:10.37,2013-03-26 20:14:00,
2013-03-26 16:19:00,45.1,25.6,29.74,NE,45,1.7,2.3,46,0.00,BKN,,0.00,WeatherDisplay:10.37,2013-03-26 20:19:00,
2013-03-26 16:24:00,44.4,24.9,29.74,NNW,338,1.5,4.6,46,0.00,BKN,,0.00,WeatherDisplay:10.37,2013-03-26 20:24:00,
2013-03-26 16:29:00,44.1,24.1,29.74,WNW,292,1.8,1.8,45,0.00,BKN,,0.00,WeatherDisplay:10.37,2013-03-26 20:29:00,
2013-03-26 16:34:00,44.1,25.1,29.74,WSW,248,2.0,3.5,47,0.00,BKN,,0.00,WeatherDisplay:10.37,2013-03-26 20:34:00,
2013-03-26 16:39:00,44.4,24.9,29.74,NW,315,1.6,2.3,46,0.00,BKN,,0.00,WeatherDisplay:10.37,2013-03-26 20:39:00,
2013-03-26 16:44:00,44.4,24.4,29.74,NNE,22,2.0,3.5,45,0.00,BKN,,0.00,WeatherDisplay:10.37,2013-03-26 20:44:00,
2013-03-26 16:49:00,44.2,23.7,29.74,NE,45,2.1,2.3,44,0.00,BKN,,0.00,WeatherDisplay:10.37,2013-03-26 20:49:00,
2013-03-26 16:54:00,43.9,23.9,29.74,NNW,338,2.0,2.3,45,0.00,BKN,,0.00,WeatherDisplay:10.37,2013-03-26 20:54:00,
2013-03-26 16:59:00,43.9,24.4,29.74,WSW,248,1.5,2.3,46,0.00,BKN,,0.00,WeatherDisplay:10.37,2013-03-26 20:59:00,
2013-03-26 17:04:00,44.1,24.1,29.74,WNW,292,1.4,3.5,45,0.00,BKN,,0.00,WeatherDisplay:10.37,2013-03-26 21:04:00,
2013-03-26 17:09:00,44.1,24.1,29.74,NNW,338,1.3,3.5,45,0.00,BKN,,0.00,WeatherDisplay:10.37,2013-03-26 21:09:00,
2013-03-26 17:14:00,43.5,23.6,29.74,North,0,1.4,2.3,45,0.00,BKN,,0.00,WeatherDisplay:10.37,2013-03-26 21:14:00,
2013-03-26 17:19:00,43.2,23.2,29.74,North,0,1.8,3.5,45,0.00,BKN,,0.00,WeatherDisplay:10.37,2013-03-26 21:19:00,
2013-03-26 17:24:00,42.8,23.9,29.74,NW,315,1.6,3.5,47,0.00,BKN,,0.00,WeatherDisplay:10.37,2013-03-26 21:24:00,
2013-03-26 17:29:00,42.8,24.4,29.74,South,180,1.1,0.0,48,0.00,BKN,,0.00,WeatherDisplay:10.37,2013-03-26 21:29:00,
2013-03-26 17:34:00,43.0,24.1,29.74,SW,225,0.8,0.0,47,0.00,BKN,,0.00,WeatherDisplay:10.37,2013-03-26 21:34:00,
2013-03-26 17:39:00,43.3,24.4,29.76,East,90,1.3,4.6,47,0.00,BKN,,0.00,WeatherDisplay:10.37,2013-03-26 21:39:00,
2013-03-26 17:44:00,43.7,24.8,29.76,WNW,292,2.2,3.5,47,0.00,BKN,,0.00,WeatherDisplay:10.37,2013-03-26 21:44:00,
2013-03-26 17:49:00,43.7,23.7,29.76,NW,315,2.2,2.3,45,0.00,BKN,,0.00,WeatherDisplay:10.37,2013-03-26 21:49:00,
2013-03-26 17:54:00,43.3,23.4,29.76,SW,225,2.6,4.6,45,0.00,BKN,,0.00,WeatherDisplay:10.37,2013-03-26 21:54:00,
2013-03-26 17:59:00,43.2,24.3,29.76,West,270,2.8,3.5,47,0.00,BKN,,0.00,WeatherDisplay:10.37,2013-03-26 21:59:00,
2013-03-26 18:04:00,42.8,23.4,29.76,SW,225,2.0,3.5,46,0.00,SCT,,0.00,WeatherDisplay:10.37,2013-03-26 22:04:00,
2013-03-26 18:09:00,42.3,23.4,29.76,West,270,1.3,0.0,47,0.00,SCT,,0.00,WeatherDisplay:10.37,2013-03-26 22:09:00,
2013-03-26 18:14:00,41.9,23.6,29.76,WSW,248,1.1,1.1,48,0.00,SCT,,0.00,WeatherDisplay:10.37,2013-03-26 22:14:00,
2013-03-26 18:19:00,41.7,23.9,29.74,ENE,68,1.6,2.3,49,0.00,SCT,,0.00,WeatherDisplay:10.37,2013-03-26 22:19:00,
2013-03-26 18:24:00,41.2,23.4,29.74,NNW,338,1.7,4.6,49,0.00,SCT,,0.00,WeatherDisplay:10.37,2013-03-26 22:24:00,
2013-03-26 18:29:00,41.2,23.4,29.74,NW,315,1.5,2.3,49,0.00,SCT,,0.00,WeatherDisplay:10.37,2013-03-26 22:29:00,
2013-03-26 18:34:00,40.6,22.9,29.74,SW,225,1.4,2.3,49,0.00,SCT,,0.00,WeatherDisplay:10.37,2013-03-26 22:34:00,
2013-03-26 18:39:00,40.3,23.6,29.72,NNW,338,1.0,1.1,51,0.00,SCT,,0.00,WeatherDisplay:10.37,2013-03-26 22:39:00,
2013-03-26 18:44:00,39.9,24.2,29.72,West,270,1.1,1.1,53,0.00,SCT,,0.00,WeatherDisplay:10.37,2013-03-26 22:44:00,
2013-03-26 18:49:00,39.7,24.0,29.72,SW,225,1.1,2.3,53,0.00,SCT,,0.00,WeatherDisplay:10.37,2013-03-26 22:49:00,
2013-03-26 18:54:00,39.2,23.5,29.72,WNW,292,1.3,2.3,53,0.00,SCT,,0.00,WeatherDisplay:10.37,2013-03-26 22:54:00,
2013-03-26 18:59:00,39.2,23.9,29.73,NNW,338,1.4,0.0,54,0.00,SCT,,0.00,WeatherDisplay:10.37,2013-03-26 22:59:00,
2013-03-26 19:04:00,38.5,23.3,29.73,West,270,1.1,3.5,54,0.00,BKN,,0.00,WeatherDisplay:10.37,2013-03-26 23:04:00,
2013-03-26 19:09:00,38.3,23.1,29.73,NNE,22,0.7,0.0,54,0.00,BKN,,0.00,WeatherDisplay:10.37,2013-03-26 23:09:00,
2013-03-26 19:15:00,37.9,23.6,29.73,South,180,0.7,1.1,56,0.00,BKN,,0.00,WeatherDisplay:10.37,2013-03-26 23:15:00,
2013-03-26 19:20:00,37.2,23.4,29.73,NNW,338,0.5,1.1,57,0.00,BKN,,0.00,WeatherDisplay:10.37,2013-03-26 23:20:00,
2013-03-26 19:25:00,36.9,23.0,29.73,WSW,248,0.2,1.1,57,0.00,BKN,,0.00,WeatherDisplay:10.37,2013-03-26 23:25:00,
2013-03-26 19:31:00,36.3,23.3,29.73,NNW,338,0.0,0.0,59,0.00,BKN,,0.00,WeatherDisplay:10.37,2013-03-26 23:31:00,
2013-03-26 19:37:00,36.1,23.2,29.74,NW,315,0.3,1.1,59,0.00,BKN,,0.00,WeatherDisplay:10.37,2013-03-26 23:37:00,
2013-03-26 19:42:00,35.6,23.5,29.74,WNW,292,0.5,1.1,61,0.00,BKN,,0.00,WeatherDisplay:10.37,2013-03-26 23:42:00,
2013-03-26 19:48:00,35.4,23.7,29.74,WNW,292,0.3,0.0,62,0.00,BKN,,0.00,WeatherDisplay:10.37,2013-03-26 23:48:00,
2013-03-26 19:53:00,34.9,23.6,29.74,NNW,338,0.2,0.0,63,0.00,BKN,,0.00,WeatherDisplay:10.37,2013-03-26 23:53:00,
2013-03-26 19:58:00,34.7,23.4,29.75,NNW,338,0.0,0.0,63,0.00,BKN,,0.00,WeatherDisplay:10.37,2013-03-26 23:58:00,
2013-03-26 20:03:00,34.7,23.4,29.75,WNW,292,0.2,0.0,63,0.00,CLR,,0.00,WeatherDisplay:10.37,2013-03-27 00:03:00,
2013-03-26 20:08:00,34.5,23.6,29.75,NW,315,0.3,1.1,64,0.00,CLR,,0.00,WeatherDisplay:10.37,2013-03-27 00:08:00,
2013-03-26 20:13:00,34.3,23.4,29.75,ENE,68,0.2,1.1,64,0.00,CLR,,0.00,WeatherDisplay:10.37,2013-03-27 00:13:00,
2013-03-26 20:18:00,34.3,23.4,29.75,SW,225,0.3,0.0,64,0.00,CLR,,0.00,WeatherDisplay:10.37,2013-03-27 00:18:00,
2013-03-26 20:23:00,34.3,23.4,29.75,NNW,338,0.3,0.0,64,0.00,CLR,,0.00,WeatherDisplay:10.37,2013-03-27 00:23:00,
2013-03-26 20:28:00,34.3,23.4,29.75,WNW,292,0.7,1.1,64,0.00,CLR,,0.00,WeatherDisplay:10.37,2013-03-27 00:28:00,
2013-03-26 20:33:00,34.2,23.2,29.75,NNW,338,0.7,0.0,64,0.00,CLR,,0.00,WeatherDisplay:10.37,2013-03-27 00:33:00,
2013-03-26 20:38:00,34.0,23.4,29.76,NW,315,0.3,1.1,65,0.00,CLR,,0.00,WeatherDisplay:10.37,2013-03-27 00:38:00,
2013-03-26 20:43:00,33.6,23.5,29.76,NW,315,0.1,0.0,66,0.00,CLR,,0.00,WeatherDisplay:10.37,2013-03-27 00:43:00,
2013-03-26 20:48:00,33.6,23.5,29.76,NW,315,0.1,0.0,66,0.00,CLR,,0.00,WeatherDisplay:10.37,2013-03-27 00:48:00,
2013-03-26 20:53:00,34.0,23.8,29.76,NW,315,0.5,2.3,66,0.00,CLR,,0.00,WeatherDisplay:10.37,2013-03-27 00:53:00,
2013-03-26 20:58:00,33.8,23.6,29.76,WNW,292,0.6,2.3,66,0.00,CLR,,0.00,WeatherDisplay:10.37,2013-03-27 00:58:00,
2013-03-26 21:03:00,34.0,23.8,29.76,West,270,0.6,0.0,66,0.00,CLR,,0.00,WeatherDisplay:10.37,2013-03-27 01:03:00,
2013-03-26 21:08:00,33.6,23.1,29.76,SW,225,0.3,0.0,65,0.00,CLR,,0.00,WeatherDisplay:10.37,2013-03-27 01:08:00,
2013-03-26 21:13:00,33.3,23.1,29.76,NW,315,0.2,0.0,66,0.00,CLR,,0.00,WeatherDisplay:10.37,2013-03-27 01:13:00,
2013-03-26 21:18:00,33.3,23.1,29.76,WSW,248,0.2,1.1,66,0.00,CLR,,0.00,WeatherDisplay:10.37,2013-03-27 01:18:00,
2013-03-26 21:23:00,33.3,23.5,29.76,West,270,0.1,0.0,67,0.00,CLR,,0.00,WeatherDisplay:10.37,2013-03-27 01:23:00,
2013-03-26 21:28:00,32.9,23.1,29.76,WSW,248,0.2,2.3,67,0.00,CLR,,0.00,WeatherDisplay:10.37,2013-03-27 01:28:00,
2013-03-26 21:33:00,33.1,22.9,29.76,NNE,22,0.3,0.0,66,0.00,CLR,,0.00,WeatherDisplay:10.37,2013-03-27 01:33:00,
2013-03-26 21:38:00,33.4,23.3,29.77,WSW,248,0.5,0.0,66,0.00,CLR,,0.00,WeatherDisplay:10.37,2013-03-27 01:38:00,
2013-03-26 21:43:00,33.1,22.9,29.77,NNE,22,0.3,1.4,66,0.00,CLR,,0.00,WeatherDisplay:10.37,2013-03-27 01:43:00,
2013-03-26 21:48:00,33.3,23.1,29.77,SW,225,0.5,2.3,66,0.00,CLR,,0.00,WeatherDisplay:10.37,2013-03-27 01:48:00,
2013-03-26 21:53:00,33.3,23.1,29.77,WSW,248,0.6,1.1,66,0.00,CLR,,0.00,WeatherDisplay:10.37,2013-03-27 01:53:00,
2013-03-26 21:58:00,33.3,23.1,29.77,WNW,292,0.3,1.1,66,0.00,CLR,,0.00,WeatherDisplay:10.37,2013-03-27 01:58:00,
2013-03-26 22:03:00,33.3,22.8,29.77,North,0,0.8,2.3,65,0.00,CLR,,0.00,WeatherDisplay:10.37,2013-03-27 02:03:00,
2013-03-26 22:08:00,33.3,22.8,29.77,NNW,338,0.9,0.0,65,0.00,CLR,,0.00,WeatherDisplay:10.37,2013-03-27 02:08:00,
2013-03-26 22:13:00,33.3,22.8,29.77,WSW,248,0.5,0.0,65,0.00,CLR,,0.00,WeatherDisplay:10.37,2013-03-27 02:13:00,
2013-03-26 22:18:00,33.3,22.4,29.77,NW,315,0.3,2.3,64,0.00,CLR,,0.00,WeatherDisplay:10.37,2013-03-27 02:18:00,
2013-03-26 22:23:00,33.3,22.4,29.77,West,270,0.3,2.3,64,0.00,CLR,,0.00,WeatherDisplay:10.37,2013-03-27 02:23:00,
2013-03-26 22:28:00,32.7,22.2,29.77,NNW,338,0.2,1.1,65,0.00,CLR,,0.00,WeatherDisplay:10.37,2013-03-27 02:28:00,
2013-03-26 22:33:00,32.5,22.4,29.77,WSW,248,0.2,0.0,66,0.00,CLR,,0.00,WeatherDisplay:10.37,2013-03-27 02:33:00,
2013-03-26 22:38:00,32.5,22.1,29.77,NNW,338,0.3,1.1,65,0.00,CLR,,0.00,WeatherDisplay:10.37,2013-03-27 02:38:00,
2013-03-26 22:43:00,32.5,22.1,29.77,NNW,338,0.3,1.1,65,0.00,CLR,,0.00,WeatherDisplay:10.37,2013-03-27 02:43:00,
2013-03-26 22:48:00,32.0,21.6,29.77,WNW,292,0.3,2.3,65,0.00,CLR,,0.00,WeatherDisplay:10.37,2013-03-27 02:48:00,
2013-03-26 22:53:00,32.5,22.1,29.77,NNW,338,0.3,0.0,65,0.00,CLR,,0.00,WeatherDisplay:10.37,2013-03-27 02:53:00,
2013-03-26 22:58:00,32.0,21.6,29.77,WNW,292,0.5,2.3,65,0.00,CLR,,0.00,WeatherDisplay:10.37,2013-03-27 02:58:00,
2013-03-26 23:03:00,32.2,21.7,29.77,NW,315,0.3,1.1,65,0.00,CLR,,0.00,WeatherDisplay:10.37,2013-03-27 03:03:00,
2013-03-26 23:08:00,31.8,21.4,29.77,WNW,292,0.3,0.0,65,0.00,CLR,,0.00,WeatherDisplay:10.37,2013-03-27 03:08:00,
2013-03-26 23:13:00,31.8,21.7,29.77,NNW,338,0.1,0.0,66,0.00,CLR,,0.00,WeatherDisplay:10.37,2013-03-27 03:13:00,
2013-03-26 23:18:00,31.3,20.9,29.77,West,270,0.1,0.0,65,0.00,CLR,,0.00,WeatherDisplay:10.37,2013-03-27 03:18:00,
2013-03-26 23:23:00,31.5,21.0,29.77,NNW,338,0.2,0.0,65,0.00,CLR,,0.00,WeatherDisplay:10.37,2013-03-27 03:23:00,
2013-03-26 23:28:00,31.1,20.7,29.77,NW,315,0.1,0.0,65,0.00,CLR,,0.00,WeatherDisplay:10.37,2013-03-27 03:28:00,
2013-03-26 23:33:00,31.1,20.7,29.77,WNW,292,0.0,0.0,65,0.00,CLR,,0.00,WeatherDisplay:10.37,2013-03-27 03:33:00,
2013-03-26 23:38:00,31.1,20.3,29.77,SW,225,0.1,0.0,64,0.00,CLR,,0.00,WeatherDisplay:10.37,2013-03-27 03:38:00,
2013-03-26 23:43:00,31.1,20.7,29.77,NNW,338,0.1,0.0,65,0.00,CLR,,0.00,WeatherDisplay:10.37,2013-03-27 03:43:00,
2013-03-26 23:49:00,30.7,20.4,29.77,WNW,292,0.0,0.0,65,0.00,CLR,,0.00,WeatherDisplay:10.37,2013-03-27 03:49:00,
2013-03-26 23:54:00,30.7,20.7,29.77,NW,315,0.1,0.0,66,0.00,CLR,,0.00,WeatherDisplay:10.37,2013-03-27 03:54:00,
2013-03-26 23:59:00,30.4,20.4,29.77,NNW,338,0.0,0.0,66,0.00,CLR,,0.00,WeatherDisplay:10.37,2013-03-27 03:59:00,